EmailTwitter


Observations de surface / Québec / CYQB (71714)

Régions: Québec | Canada | États-Unis | Europe | France | UK | Ailleurs
Station
Affichage
Infos & localisation pour CYQB (71714) | Aide pour décoder les METARs

Observations prises le 2017-09-20 à 03H00 UTC à QUEBEC A, QB (CYQB)

Etat du ciel: partiellement nuageux.

Température: 19.0 Celsius

Point de rosée: 18.0 Celsius

Humidité relative: 94%

Indice Humidex: 25.

Vents: Nord-est à 9 km/h ou 5 noeuds.

Pression au niveau moyen de la mer: 101.80 kilopascals.

Calage altimétrique: 101.79 kilopascals ou 30.06 pouces de mercure.

Visibilité horizontale: 15.00 milles terrestres ou 24.00 kilomètres.

Hauteur du plafond: 3658 mètres ( 12000 pieds ).

Observation METAR:

CYQB 200300Z 03005KT 15SM BKN120 19/18 A3006 RMK AC6 SLP180 DENSITY ALT 700FT=